Time;durP1;ratioP1;P1;durP2;ratioP2;P2;SDS_P1;SDS_P2;PMS_P1;PMS_P2;Temp;Humidity;BMP_temperature;BMP_pressure;BME280_temperature;BME280_humidity;BME280_pressure;Samples;Min_cycle;Max_cycle;Signal;HPM_P1;HPM_P2
2020/12/02 00:01:18;;;;;;;27.27;17.80;;;2.70;99.90;;;;;;5073385;28;20459;-69
2020/12/02 00:03:54;;;;;;;29.43;18.90;;;2.70;99.90;;;;;;5073775;28;20786;-69
2020/12/02 00:06:22;;;;;;;29.20;18.00;;;2.60;99.90;;;;;;5073720;28;20830;-69
2020/12/02 00:08:53;;;;;;;30.63;18.10;;;2.60;99.90;;;;;;5073523;28;20435;-69
2020/12/02 00:11:21;;;;;;;24.23;16.10;;;2.60;99.90;;;;;;5073506;28;20525;-69
2020/12/02 00:13:49;;;;;;;25.33;16.63;;;2.60;99.90;;;;;;5073459;28;20434;-69
2020/12/02 00:16:21;;;;;;;29.03;18.67;;;2.60;99.90;;;;;;5073561;28;20432;-69
2020/12/02 00:18:52;;;;;;;31.07;18.40;;;2.60;99.90;;;;;;5073637;28;20424;-69
2020/12/02 00:21:19;;;;;;;27.23;18.30;;;2.60;99.90;;;;;;5073594;28;20593;-69
2020/12/02 00:23:46;;;;;;;29.90;18.80;;;2.60;99.90;;;;;;5073492;28;20764;-69
2020/12/02 00:26:15;;;;;;;25.90;16.33;;;2.60;99.90;;;;;;5074149;28;20485;-69
2020/12/02 00:28:43;;;;;;;29.07;17.73;;;2.60;99.90;;;;;;5076692;28;20473;-70
2020/12/02 00:31:10;;;;;;;31.27;17.83;;;2.50;99.90;;;;;;5078096;28;20505;-70
2020/12/02 00:33:36;;;;;;;31.47;17.80;;;2.50;99.90;;;;;;5073910;28;20776;-70
2020/12/02 00:36:03;;;;;;;31.40;18.10;;;2.50;99.90;;;;;;5072985;28;20435;-69
2020/12/02 00:38:29;;;;;;;33.40;19.80;;;2.50;99.90;;;;;;5073038;28;20431;-69
2020/12/02 00:40:56;;;;;;;25.40;16.97;;;2.50;99.90;;;;;;5072706;28;20455;-69
2020/12/02 00:43:25;;;;;;;28.63;17.40;;;2.50;99.90;;;;;;5073028;28;20435;-69
2020/12/02 00:45:55;;;;;;;31.27;19.37;;;2.50;99.90;;;;;;5072834;28;20814;-69
2020/12/02 00:48:23;;;;;;;27.83;17.93;;;2.50;99.90;;;;;;5072894;28;20454;-69
2020/12/02 00:50:51;;;;;;;28.30;17.90;;;2.40;99.90;;;;;;5072449;28;20910;-69
2020/12/02 00:53:20;;;;;;;27.00;16.23;;;2.40;99.90;;;;;;5072757;28;20435;-69
2020/12/02 00:55:49;;;;;;;29.93;18.33;;;2.40;99.90;;;;;;5072731;28;20427;-69
2020/12/02 00:58:27;;;;;;;25.97;16.40;;;2.40;99.90;;;;;;5072638;28;20488;-69
2020/12/02 01:00:56;;;;;;;28.70;18.03;;;2.40;99.90;;;;;;5072378;28;21045;-69
2020/12/02 01:03:25;;;;;;;28.20;18.33;;;2.40;99.90;;;;;;5072884;28;20485;-69
2020/12/02 01:05:52;;;;;;;25.77;15.83;;;2.40;99.90;;;;;;5072884;28;20798;-69
2020/12/02 01:08:24;;;;;;;27.93;17.27;;;2.40;99.90;;;;;;5072592;28;20431;-69
2020/12/02 01:10:56;;;;;;;24.73;16.13;;;2.40;99.90;;;;;;5072034;28;20895;-69
2020/12/02 01:13:22;;;;;;;29.23;17.70;;;2.40;99.90;;;;;;5072277;28;20447;-69
2020/12/02 01:15:49;;;;;;;29.50;18.40;;;2.40;99.90;;;;;;5072254;28;20435;-69
2020/12/02 01:18:19;;;;;;;31.43;19.37;;;2.40;99.90;;;;;;5072399;28;20431;-69
2020/12/02 01:20:48;;;;;;;26.20;17.67;;;2.40;99.90;;;;;;5072174;28;20435;-69
2020/12/02 01:23:16;;;;;;;27.30;17.90;;;2.40;99.90;;;;;;5072066;28;20488;-69
2020/12/02 01:25:45;;;;;;;27.87;17.03;;;2.40;99.90;;;;;;5072019;28;20432;-70
2020/12/02 01:28:18;;;;;;;27.17;17.30;;;2.40;99.90;;;;;;5071971;28;20951;-70
2020/12/02 01:30:45;;;;;;;27.83;18.80;;;2.50;99.90;;;;;;5071734;28;20573;-69
2020/12/02 01:33:15;;;;;;;24.13;15.17;;;2.50;99.90;;;;;;5072090;28;20501;-69
2020/12/02 01:35:46;;;;;;;25.17;17.33;;;2.50;99.90;;;;;;5071989;28;20469;-69
2020/12/02 01:38:17;;;;;;;24.73;15.33;;;2.40;99.90;;;;;;5072023;28;20854;-70
2020/12/02 01:40:44;;;;;;;28.37;18.20;;;2.40;99.90;;;;;;5071534;28;20486;-69
2020/12/02 01:43:12;;;;;;;26.27;16.80;;;2.40;99.90;;;;;;5071793;28;20435;-69
2020/12/02 01:45:42;;;;;;;30.03;17.20;;;2.40;99.90;;;;;;5071864;28;20439;-69
2020/12/02 01:48:34;;;;;;;26.27;17.80;;;2.30;99.90;;;;;;5071655;28;20928;-69
2020/12/02 01:51:07;;;;;;;31.27;18.60;;;2.30;99.90;;;;;;5071318;28;20475;-69
2020/12/02 01:53:42;;;;;;;30.10;18.37;;;2.30;99.90;;;;;;5071683;28;20514;-69
2020/12/02 01:56:15;;;;;;;29.23;18.40;;;2.30;99.90;;;;;;5071573;28;20426;-69
2020/12/02 01:58:49;;;;;;;30.50;20.10;;;2.30;99.90;;;;;;5071086;28;20520;-70
2020/12/02 02:01:21;;;;;;;26.37;18.10;;;2.40;99.90;;;;;;5071340;28;20530;-69
2020/12/02 02:03:50;;;;;;;27.87;18.47;;;2.40;99.90;;;;;;5071796;28;20531;-69
2020/12/02 02:06:22;;;;;;;26.80;17.40;;;2.40;99.90;;;;;;5071418;28;20434;-70
2020/12/02 02:08:49;;;;;;;37.60;16.20;;;2.40;99.90;;;;;;5071966;28;20477;-69
2020/12/02 02:11:20;;;;;;;26.73;16.87;;;2.40;99.90;;;;;;5070973;28;20858;-69
2020/12/02 02:14:07;;;;;;;25.57;17.27;;;2.50;99.90;;;;;;5071336;28;20477;-70
2020/12/02 02:16:39;;;;;;;26.47;16.27;;;2.50;99.90;;;;;;5071568;28;20908;-69
2020/12/02 02:19:05;;;;;;;25.80;17.07;;;2.50;99.90;;;;;;5071460;28;20974;-69
2020/12/02 02:21:35;;;;;;;30.87;16.30;;;2.40;99.90;;;;;;5071263;28;20454;-69
2020/12/02 02:24:02;;;;;;;25.80;17.43;;;2.40;99.90;;;;;;5071301;28;20447;-69
2020/12/02 02:26:36;;;;;;;25.67;18.30;;;2.40;99.90;;;;;;5071502;28;20443;-69
2020/12/02 02:29:09;;;;;;;24.97;17.20;;;2.40;99.90;;;;;;5071317;28;20509;-69
2020/12/02 02:31:41;;;;;;;24.97;16.80;;;2.40;99.90;;;;;;5071096;28;20447;-69
2020/12/02 02:34:10;;;;;;;29.10;18.30;;;2.40;99.90;;;;;;5071114;28;20492;-69
2020/12/02 02:36:37;;;;;;;28.70;16.50;;;2.40;99.90;;;;;;5071371;28;20467;-69
2020/12/02 02:39:05;;;;;;;29.07;18.17;;;2.40;99.90;;;;;;5071124;28;20458;-69
2020/12/02 02:41:33;;;;;;;26.93;16.63;;;2.40;99.90;;;;;;5070893;28;20452;-69
2020/12/02 02:44:00;;;;;;;26.13;17.77;;;2.40;99.90;;;;;;5071153;28;20975;-69
2020/12/02 02:46:27;;;;;;;28.70;17.40;;;2.40;99.90;;;;;;5071158;28;20427;-69
2020/12/02 02:48:54;;;;;;;25.40;17.27;;;2.40;99.90;;;;;;5071126;28;20800;-69
2020/12/02 02:51:20;;;;;;;25.20;16.67;;;2.40;99.90;;;;;;5070800;28;20479;-69
2020/12/02 02:53:47;;;;;;;28.63;17.40;;;2.40;99.90;;;;;;5071236;28;20447;-69
2020/12/02 02:56:14;;;;;;;24.13;15.80;;;2.40;99.90;;;;;;5071022;28;20517;-69
2020/12/02 02:58:42;;;;;;;27.63;16.43;;;2.40;99.90;;;;;;5070969;28;20431;-69
2020/12/02 03:01:09;;;;;;;27.03;16.17;;;2.40;99.90;;;;;;5070707;28;20974;-69
2020/12/02 03:03:36;;;;;;;26.10;16.87;;;2.40;99.90;;;;;;5070964;28;20844;-69
2020/12/02 03:06:06;;;;;;;31.70;17.10;;;2.40;99.90;;;;;;5070847;28;20431;-69
2020/12/02 03:08:33;;;;;;;28.50;16.47;;;2.40;99.90;;;;;;5070605;28;20843;-69
2020/12/02 03:11:04;;;;;;;32.77;17.50;;;2.30;99.90;;;;;;5071778;28;20884;-69
2020/12/02 03:13:35;;;;;;;30.00;16.27;;;2.30;99.90;;;;;;5074948;28;20837;-69
2020/12/02 03:16:07;;;;;;;28.60;16.57;;;2.30;99.90;;;;;;5074603;28;20570;-69
2020/12/02 03:18:34;;;;;;;23.07;16.70;;;2.30;99.90;;;;;;5074577;28;20431;-69
2020/12/02 03:21:04;;;;;;;23.70;15.50;;;2.30;99.90;;;;;;5074069;28;20434;-69
2020/12/02 03:23:31;;;;;;;33.53;17.00;;;2.30;99.90;;;;;;5074668;28;20434;-69
2020/12/02 03:25:58;;;;;;;24.30;15.60;;;2.30;99.90;;;;;;5074610;28;20461;-69
2020/12/02 03:28:28;;;;;;;28.90;15.50;;;2.30;99.90;;;;;;5074258;28;20462;-69
2020/12/02 03:30:56;;;;;;;27.53;16.17;;;2.40;99.90;;;;;;5074120;28;20524;-69
2020/12/02 03:33:24;;;;;;;29.10;16.73;;;2.40;99.90;;;;;;5074218;28;20435;-69
2020/12/02 03:35:51;;;;;;;27.87;17.00;;;2.40;99.90;;;;;;5073888;28;20484;-69
2020/12/02 03:38:18;;;;;;;29.23;16.57;;;2.40;99.90;;;;;;5074242;28;20484;-69
2020/12/02 03:40:44;;;;;;;29.50;18.43;;;2.50;99.90;;;;;;5073991;28;20445;-69
2020/12/02 03:43:11;;;;;;;30.50;17.30;;;2.40;99.90;;;;;;5074090;28;20436;-69
2020/12/02 03:45:41;;;;;;;33.73;18.77;;;2.50;99.90;;;;;;5074124;28;20481;-69
2020/12/02 03:48:09;;;;;;;35.00;17.63;;;2.50;99.90;;;;;;5074300;28;20481;-69
2020/12/02 03:50:37;;;;;;;28.63;16.87;;;2.50;99.90;;;;;;5073720;28;20474;-69
2020/12/02 03:53:04;;;;;;;29.97;18.77;;;2.50;99.90;;;;;;5073857;28;20455;-69
2020/12/02 03:55:31;;;;;;;32.73;18.53;;;2.50;99.90;;;;;;5073937;28;20909;-69
2020/12/02 03:57:57;;;;;;;29.87;17.33;;;2.50;99.90;;;;;;5073880;28;20791;-70
2020/12/02 04:00:24;;;;;;;30.20;17.80;;;2.50;99.90;;;;;;5073429;28;20909;-69
2020/12/02 04:02:51;;;;;;;28.83;17.23;;;2.50;99.90;;;;;;5073781;28;20455;-69
2020/12/02 04:05:17;;;;;;;29.80;17.30;;;2.50;99.90;;;;;;5073752;28;20481;-69
2020/12/02 04:07:45;;;;;;;26.93;16.20;;;2.50;99.90;;;;;;5073599;28;20480;-69
2020/12/02 04:10:11;;;;;;;30.27;17.40;;;2.50;99.90;;;;;;5073252;28;20471;-69
2020/12/02 04:12:38;;;;;;;29.50;17.10;;;2.40;99.90;;;;;;5073524;28;20455;-69
2020/12/02 04:15:05;;;;;;;28.40;17.30;;;2.40;99.90;;;;;;5073881;28;20489;-70
2020/12/02 04:17:31;;;;;;;27.50;17.80;;;2.40;99.90;;;;;;5077054;28;20458;-70
2020/12/02 04:19:58;;;;;;;28.80;18.07;;;2.50;99.90;;;;;;5075226;28;20936;-70
2020/12/02 04:22:25;;;;;;;28.47;17.67;;;2.50;99.90;;;;;;5074155;28;20866;-69
2020/12/02 04:24:53;;;;;;;26.70;16.83;;;2.50;99.90;;;;;;5073369;28;20432;-69
2020/12/02 04:27:19;;;;;;;28.23;16.80;;;2.50;99.90;;;;;;5073071;28;20504;-69
2020/12/02 04:29:46;;;;;;;31.53;18.20;;;2.50;99.90;;;;;;5073198;28;20528;-69
2020/12/02 04:32:12;;;;;;;25.47;15.23;;;2.50;99.90;;;;;;5072944;28;20944;-69
2020/12/02 04:34:39;;;;;;;31.10;17.00;;;2.50;99.90;;;;;;5072935;28;20569;-69
2020/12/02 04:37:06;;;;;;;25.40;15.93;;;2.50;99.90;;;;;;5073278;28;20819;-69
2020/12/02 04:39:32;;;;;;;29.13;17.13;;;2.60;99.90;;;;;;5073153;28;20442;-70
2020/12/02 04:42:00;;;;;;;27.93;16.40;;;2.50;99.90;;;;;;5072871;28;20951;-69
2020/12/02 04:44:27;;;;;;;28.57;16.47;;;2.60;99.90;;;;;;5073348;28;20485;-69
2020/12/02 04:46:55;;;;;;;27.10;15.60;;;2.50;99.90;;;;;;5073042;28;20849;-69
2020/12/02 04:49:29;;;;;;;28.57;17.03;;;2.50;99.90;;;;;;5073425;28;20458;-69
2020/12/02 04:52:00;;;;;;;23.07;15.10;;;2.60;99.90;;;;;;5073705;28;20439;-70
2020/12/02 04:54:27;;;;;;;27.00;17.17;;;2.60;99.90;;;;;;5075250;28;20820;-69
2020/12/02 04:56:53;;;;;;;27.80;16.53;;;2.50;99.90;;;;;;5076963;28;20831;-69
2020/12/02 04:59:34;;;;;;;33.27;18.33;;;2.50;99.90;;;;;;5072788;28;20431;-69
2020/12/02 05:02:00;;;;;;;26.40;16.13;;;2.50;99.90;;;;;;5072553;28;20470;-69
2020/12/02 05:04:29;;;;;;;24.67;15.53;;;2.50;99.90;;;;;;5072678;28;20916;-69
2020/12/02 05:07:13;;;;;;;27.83;15.40;;;2.60;99.90;;;;;;5072507;28;20431;-69
2020/12/02 05:09:53;;;;;;;29.27;16.10;;;2.60;99.90;;;;;;5072637;28;20756;-69
2020/12/02 05:12:24;;;;;;;26.73;16.60;;;2.60;99.90;;;;;;5072510;28;20443;-69
2020/12/02 05:14:51;;;;;;;25.57;15.93;;;2.60;99.90;;;;;;5072492;28;20457;-69
2020/12/02 05:17:23;;;;;;;31.40;17.37;;;2.60;99.90;;;;;;5072619;28;20443;-69
2020/12/02 05:20:08;;;;;;;24.33;16.50;;;2.60;99.90;;;;;;5073155;28;20431;-69
2020/12/02 05:22:36;;;;;;;25.47;15.90;;;2.60;99.90;;;;;;5073306;28;20489;-69
2020/12/02 05:25:04;;;;;;;22.73;16.17;;;2.60;99.90;;;;;;5072253;28;20443;-69
2020/12/02 05:27:34;;;;;;;26.50;16.73;;;2.60;99.90;;;;;;5072086;28;20451;-69
2020/12/02 05:30:24;;;;;;;27.20;17.10;;;2.60;99.90;;;;;;5071991;28;20528;-69
2020/12/02 05:33:18;;;;;;;28.70;17.47;;;2.60;99.90;;;;;;5071480;28;21106;-69
2020/12/02 05:35:47;;;;;;;24.90;16.83;;;2.60;99.90;;;;;;5072264;28;20423;-69
2020/12/02 05:38:24;;;;;;;25.43;16.47;;;2.70;99.90;;;;;;5071981;28;20515;-69
2020/12/02 05:40:53;;;;;;;26.40;17.87;;;2.60;99.90;;;;;;5071352;28;20446;-69
2020/12/02 05:43:27;;;;;;;22.90;15.20;;;2.60;99.90;;;;;;5071955;28;20423;-69
2020/12/02 05:45:58;;;;;;;25.90;15.50;;;2.60;99.90;;;;;;5071430;28;20501;-69
2020/12/02 05:48:28;;;;;;;26.07;16.87;;;2.60;99.90;;;;;;5071536;28;20541;-69
2020/12/02 05:50:56;;;;;;;23.47;15.17;;;2.60;99.90;;;;;;5071220;28;20548;-69
2020/12/02 05:53:28;;;;;;;26.13;16.60;;;2.60;99.90;;;;;;5071416;28;20493;-69
2020/12/02 05:55:55;;;;;;;24.43;15.00;;;2.60;99.90;;;;;;5071528;28;20420;-69
2020/12/02 05:58:25;;;;;;;20.37;13.83;;;2.60;99.90;;;;;;5071245;28;20835;-70
2020/12/02 06:00:52;;;;;;;22.80;15.57;;;2.60;99.90;;;;;;5070809;28;20549;-69
2020/12/02 06:03:22;;;;;;;25.20;15.20;;;2.60;99.90;;;;;;5071512;28;20427;-70
2020/12/02 06:05:49;;;;;;;26.40;16.30;;;2.60;99.90;;;;;;5071399;28;20493;-69
2020/12/02 06:08:34;;;;;;;18.97;12.83;;;2.60;99.90;;;;;;5071306;28;20916;-69
2020/12/02 06:11:30;;;;;;;20.67;14.63;;;2.60;99.90;;;;;;5070812;28;20470;-69
2020/12/02 06:13:59;;;;;;;25.50;16.27;;;2.70;99.90;;;;;;5061283;28;20807;-69
2020/12/02 06:16:41;;;;;;;24.17;14.27;;;2.60;99.90;;;;;;5068356;28;20431;-70
2020/12/02 06:19:22;;;;;;;23.67;16.77;;;2.60;99.90;;;;;;5070978;28;20454;-69
2020/12/02 06:21:52;;;;;;;24.00;15.97;;;2.60;99.90;;;;;;5051287;28;20456;-69
2020/12/02 06:24:34;;;;;;;19.63;13.77;;;2.60;99.90;;;;;;5051013;28;21008;-69
2020/12/02 06:27:01;;;;;;;22.23;15.40;;;2.60;99.90;;;;;;5050439;28;20477;-69
2020/12/02 06:29:31;;;;;;;19.50;13.33;;;2.60;99.90;;;;;;5051036;28;20490;-69
2020/12/02 06:32:04;;;;;;;20.33;13.83;;;2.60;99.90;;;;;;5050694;28;21000;-69
2020/12/02 06:34:31;;;;;;;24.13;14.87;;;2.60;99.90;;;;;;5051249;28;20486;-69
2020/12/02 06:37:12;;;;;;;21.37;14.53;;;2.60;99.90;;;;;;5051328;28;21069;-69
2020/12/02 06:39:42;;;;;;;25.07;14.70;;;2.50;99.90;;;;;;5051359;28;20905;-69
2020/12/02 06:42:23;;;;;;;23.20;14.50;;;2.50;99.90;;;;;;5051301;28;20464;-70
2020/12/02 06:45:11;;;;;;;22.43;15.13;;;2.50;99.90;;;;;;5053166;28;20905;-70
2020/12/02 06:47:57;;;;;;;22.70;15.20;;;2.50;99.90;;;;;;5055475;28;20428;-70
2020/12/02 06:50:28;;;;;;;20.93;15.60;;;2.60;99.90;;;;;;5055159;28;20537;-70
2020/12/02 06:53:07;;;;;;;21.33;15.47;;;2.70;99.90;;;;;;5054970;28;20621;-70
2020/12/02 06:55:33;;;;;;;22.40;15.53;;;2.70;99.90;;;;;;5054960;28;20446;-70
2020/12/02 06:58:03;;;;;;;22.93;15.10;;;2.60;99.90;;;;;;5055192;28;20442;-70
2020/12/02 07:00:37;;;;;;;20.87;16.40;;;2.60;99.90;;;;;;5054144;28;20440;-70
2020/12/02 07:03:13;;;;;;;22.10;14.60;;;2.60;99.90;;;;;;5053114;28;20805;-70
2020/12/02 07:05:43;;;;;;;20.37;13.63;;;2.60;99.90;;;;;;5053332;28;20767;-70
2020/12/02 07:08:17;;;;;;;20.80;14.13;;;2.70;99.90;;;;;;5055068;28;20431;-70
2020/12/02 07:10:57;;;;;;;19.23;13.93;;;2.70;99.90;;;;;;5054479;28;20468;-70
2020/12/02 07:13:25;;;;;;;20.80;14.17;;;2.70;99.90;;;;;;5054817;28;20432;-70
2020/12/02 07:15:52;;;;;;;21.17;14.50;;;2.70;99.90;;;;;;5054663;28;20428;-70
2020/12/02 07:18:22;;;;;;;21.57;14.77;;;2.70;99.90;;;;;;5055015;28;20432;-70
2020/12/02 07:21:04;;;;;;;23.63;14.37;;;2.70;99.90;;;;;;5054160;28;20440;-70
2020/12/02 07:23:32;;;;;;;19.20;14.40;;;2.70;99.90;;;;;;5053229;28;20450;-70
2020/12/02 07:26:00;;;;;;;21.27;13.83;;;2.70;99.90;;;;;;5063338;28;20497;-70
2020/12/02 07:28:27;;;;;;;18.90;13.33;;;2.70;99.90;;;;;;5053379;28;20444;-70
2020/12/02 07:30:53;;;;;;;23.40;14.00;;;2.80;99.90;;;;;;5052737;28;20480;-70
2020/12/02 07:33:27;;;;;;;18.27;12.97;;;2.70;99.90;;;;;;5063365;28;20454;-70
2020/12/02 07:36:07;;;;;;;20.83;13.80;;;2.80;99.90;;;;;;5074272;28;20857;-70
2020/12/02 07:38:33;;;;;;;23.07;15.10;;;2.80;99.90;;;;;;5071374;28;20501;-70
2020/12/02 07:41:15;;;;;;;19.70;13.53;;;2.80;99.90;;;;;;5063197;28;20448;-70
2020/12/02 07:43:43;;;;;;;24.03;15.20;;;2.70;99.90;;;;;;5053794;28;20526;-70
2020/12/02 07:46:12;;;;;;;19.80;13.37;;;2.70;99.90;;;;;;5053417;28;20448;-70
2020/12/02 07:48:40;;;;;;;18.40;13.93;;;2.70;99.90;;;;;;5053118;28;20436;-70
2020/12/02 07:51:12;;;;;;;21.80;16.33;;;2.80;99.90;;;;;;5052870;28;20483;-70
2020/12/02 07:53:45;;;;;;;22.67;15.07;;;2.80;99.90;;;;;;5052813;28;20810;-70
2020/12/02 07:56:19;;;;;;;22.70;15.20;;;2.80;99.90;;;;;;5072188;28;20424;-70
2020/12/02 07:58:47;;;;;;;22.57;14.87;;;2.80;99.90;;;;;;5072857;28;20435;-70
2020/12/02 08:01:46;;;;;;;23.40;15.40;;;2.80;99.90;;;;;;5072533;28;20451;-70
2020/12/02 08:04:26;;;;;;;20.83;13.97;;;2.80;99.90;;;;;;5052871;28;20700;-70
2020/12/02 08:07:00;;;;;;;26.97;16.73;;;3.00;99.90;;;;;;5072311;28;20471;-70
2020/12/02 08:09:26;;;;;;;23.57;15.20;;;3.10;99.90;;;;;;5072576;28;20436;-70
2020/12/02 08:11:56;;;;;;;22.20;15.23;;;3.20;99.90;;;;;;5073292;28;20699;-70
2020/12/02 08:14:26;;;;;;;21.53;14.73;;;3.30;99.90;;;;;;5071931;28;20427;-70
2020/12/02 08:16:56;;;;;;;22.33;15.33;;;3.40;99.90;;;;;;5062168;28;20931;-70
2020/12/02 08:19:31;;;;;;;21.60;16.20;;;3.50;99.90;;;;;;5072912;28;20446;-70
2020/12/02 08:21:59;;;;;;;22.90;15.47;;;3.60;99.90;;;;;;5072836;28;20455;-70
2020/12/02 08:24:35;;;;;;;21.33;16.60;;;3.60;99.90;;;;;;5072742;28;20480;-70
2020/12/02 08:27:03;;;;;;;21.80;15.87;;;3.60;99.90;;;;;;5073474;28;20937;-70
2020/12/02 08:29:30;;;;;;;23.93;15.93;;;3.70;99.90;;;;;;5073072;28;20960;-70
2020/12/02 08:32:02;;;;;;;24.20;15.97;;;3.70;99.90;;;;;;5071905;28;20546;-70
2020/12/02 08:34:31;;;;;;;19.40;14.57;;;3.70;99.90;;;;;;5072633;28;20485;-70
2020/12/02 08:37:21;;;;;;;22.13;16.80;;;3.70;99.90;;;;;;5072470;28;20439;-70
2020/12/02 08:39:52;;;;;;;18.00;12.60;;;3.80;99.90;;;;;;5072786;28;20435;-70
2020/12/02 08:42:27;;;;;;;19.90;14.77;;;3.80;99.90;;;;;;5075166;28;20442;-70
2020/12/02 08:45:13;;;;;;;22.57;13.63;;;3.80;99.90;;;;;;5073103;28;20900;-69
2020/12/02 08:47:41;;;;;;;20.27;12.67;;;3.80;99.90;;;;;;5073042;28;20978;-69
2020/12/02 08:50:20;;;;;;;23.57;15.20;;;3.80;99.90;;;;;;5072780;28;20471;-69
2020/12/02 08:52:51;;;;;;;21.53;14.97;;;3.80;99.90;;;;;;5065584;28;20884;-69
2020/12/02 08:55:17;;;;;;;16.63;13.53;;;3.80;99.90;;;;;;5062246;28;20430;-69
2020/12/02 08:57:45;;;;;;;21.70;14.20;;;3.80;99.90;;;;;;5072378;28;20435;-70
2020/12/02 09:00:14;;;;;;;20.90;14.40;;;3.70;99.90;;;;;;5072110;28;20465;-69
2020/12/02 09:02:41;;;;;;;20.00;14.17;;;3.80;99.90;;;;;;5072732;28;20447;-69
2020/12/02 09:05:07;;;;;;;18.00;14.47;;;3.80;99.90;;;;;;5072257;28;20849;-69
2020/12/02 09:07:34;;;;;;;23.97;16.10;;;3.90;99.90;;;;;;5071466;28;20477;-70
2020/12/02 09:10:01;;;;;;;20.67;14.90;;;3.90;99.90;;;;;;5071831;28;20427;-70
2020/12/02 09:12:29;;;;;;;23.03;14.60;;;3.90;99.90;;;;;;5071843;28;20543;-70
2020/12/02 09:14:56;;;;;;;23.87;16.50;;;3.90;99.90;;;;;;5072005;28;20432;-70
2020/12/02 09:17:23;;;;;;;20.57;14.97;;;3.90;99.90;;;;;;5071876;28;20427;-69
2020/12/02 09:19:50;;;;;;;25.67;15.90;;;3.90;99.90;;;;;;5071547;28;20427;-70
2020/12/02 09:22:17;;;;;;;22.27;15.50;;;3.90;99.90;;;;;;5071222;28;20782;-70
2020/12/02 09:24:44;;;;;;;24.57;16.30;;;3.90;99.90;;;;;;5071932;28;20439;-70
2020/12/02 09:27:11;;;;;;;24.67;14.50;;;3.90;99.90;;;;;;5071582;28;20450;-70
2020/12/02 09:29:38;;;;;;;22.33;16.80;;;3.90;99.90;;;;;;5071996;28;20431;-70
2020/12/02 09:32:06;;;;;;;25.37;16.43;;;3.90;99.90;;;;;;5071544;28;20859;-70
2020/12/02 09:34:33;;;;;;;26.70;16.90;;;3.80;99.90;;;;;;5071413;28;20443;-69
2020/12/02 09:37:00;;;;;;;23.53;16.53;;;3.90;99.90;;;;;;5071388;28;20433;-70
2020/12/02 09:39:27;;;;;;;22.30;15.17;;;3.80;99.90;;;;;;5071628;28;20813;-69
2020/12/02 09:42:17;;;;;;;23.33;15.73;;;3.80;99.90;;;;;;5070732;28;20513;-70
2020/12/02 09:44:51;;;;;;;22.90;16.00;;;3.70;99.90;;;;;;5072060;28;20443;-69
2020/12/02 09:47:19;;;;;;;25.57;16.00;;;3.70;99.90;;;;;;5072039;28;20430;-69
2020/12/02 09:49:48;;;;;;;22.60;14.80;;;3.80;99.90;;;;;;5072027;28;20454;-70
2020/12/02 09:52:37;;;;;;;27.43;16.17;;;3.90;99.90;;;;;;5071626;28;20559;-70
2020/12/02 09:55:12;;;;;;;23.80;14.80;;;3.90;99.90;;;;;;5072337;28;20507;-69
2020/12/02 09:57:38;;;;;;;25.73;16.10;;;3.90;99.90;;;;;;5072000;28;20900;-70
2020/12/02 10:00:08;;;;;;;24.67;16.67;;;3.90;99.90;;;;;;5060720;28;20430;-71
2020/12/02 10:03:10;;;;;;;42.03;21.33;;;3.90;99.90;;;;;;5064971;28;20271;-69
2020/12/02 10:06:01;;;;;;;22.13;13.67;;;3.90;99.90;;;;;;5068362;28;20471;-69
2020/12/02 10:08:45;;;;;;;23.00;15.07;;;3.90;99.90;;;;;;5070710;28;20427;-69
2020/12/02 10:11:23;;;;;;;25.07;13.23;;;4.00;99.90;;;;;;5071131;28;20476;-69
2020/12/02 10:14:36;;;;;;;25.53;14.03;;;4.10;99.90;;;;;;5071689;28;20977;-70
2020/12/02 10:17:13;;;;;;;24.93;13.70;;;4.30;99.90;;;;;;5071665;28;20822;-70
2020/12/02 10:20:00;;;;;;;19.57;13.77;;;4.30;99.90;;;;;;5071080;28;20435;-69
2020/12/02 10:22:50;;;;;;;19.80;13.80;;;4.30;99.90;;;;;;5071107;28;20458;-69
2020/12/02 10:25:33;;;;;;;22.83;13.90;;;4.40;99.90;;;;;;5071138;28;20812;-70
2020/12/02 10:28:14;;;;;;;20.70;12.33;;;4.50;99.90;;;;;;5070951;28;20932;-69
2020/12/02 10:30:54;;;;;;;25.60;14.90;;;4.40;99.90;;;;;;5070674;28;20479;-70
2020/12/02 10:33:31;;;;;;;29.53;14.67;;;4.60;99.90;;;;;;5070739;28;20427;-70
2020/12/02 10:35:58;;;;;;;23.97;14.90;;;4.60;99.90;;;;;;5074250;28;20427;-69
2020/12/02 10:38:33;;;;;;;21.40;13.80;;;4.70;99.90;;;;;;5073480;28;20434;-70
2020/12/02 10:41:17;;;;;;;21.60;15.27;;;4.60;99.90;;;;;;5071207;28;20434;-69
2020/12/02 10:43:54;;;;;;;21.80;14.37;;;4.60;99.90;;;;;;5071427;28;20431;-70
2020/12/02 10:46:33;;;;;;;24.20;14.70;;;4.50;99.90;;;;;;5071477;28;20538;-69
2020/12/02 10:49:08;;;;;;;20.50;14.40;;;4.50;99.90;;;;;;5071500;28;20423;-70
2020/12/02 10:51:38;;;;;;;21.97;14.37;;;4.40;99.90;;;;;;5071057;28;20478;-70
2020/12/02 10:54:12;;;;;;;24.97;15.93;;;4.50;99.90;;;;;;5071297;28;20816;-70
2020/12/02 10:56:42;;;;;;;22.03;14.43;;;4.50;99.90;;;;;;5071353;28;21007;-70
2020/12/02 10:59:12;;;;;;;22.70;13.60;;;4.50;99.90;;;;;;5071208;28;20905;-70
2020/12/02 11:01:40;;;;;;;21.53;13.80;;;4.40;99.90;;;;;;5070937;28;20471;-70
2020/12/02 11:04:07;;;;;;;22.27;13.37;;;4.50;99.90;;;;;;5071587;28;20468;-70
2020/12/02 11:06:43;;;;;;;22.73;14.90;;;4.60;99.90;;;;;;5069191;28;20496;-70
2020/12/02 11:09:28;;;;;;;22.10;14.20;;;4.60;99.90;;;;;;5061797;28;20428;-69
2020/12/02 11:12:19;;;;;;;21.27;13.53;;;4.20;99.90;;;;;;5049834;28;20487;-70
2020/12/02 11:15:01;;;;;;;20.53;13.40;;;4.00;99.90;;;;;;5049945;28;20474;-69
2020/12/02 11:17:39;;;;;;;25.23;14.17;;;3.90;99.90;;;;;;5050088;28;20539;-70
2020/12/02 11:20:10;;;;;;;28.60;16.43;;;3.80;99.90;;;;;;5049957;28;20431;-70
2020/12/02 11:23:03;;;;;;;23.90;14.60;;;3.60;99.90;;;;;;5050249;28;20522;-70
2020/12/02 11:25:41;;;;;;;20.30;13.80;;;3.60;99.90;;;;;;5050215;28;20432;-69
2020/12/02 11:28:09;;;;;;;24.33;15.17;;;3.60;99.90;;;;;;5049962;28;20836;-69
2020/12/02 11:30:39;;;;;;;23.90;14.00;;;3.50;99.90;;;;;;5050042;28;20672;-69
2020/12/02 11:33:38;;;;;;;29.10;16.20;;;3.60;99.90;;;;;;5053437;28;20463;-70
2020/12/02 11:36:36;;;;;;;27.10;16.13;;;3.60;99.90;;;;;;5053832;28;20450;-70
2020/12/02 11:39:14;;;;;;;28.13;15.73;;;3.50;99.90;;;;;;5054445;28;20459;-69
2020/12/02 11:41:53;;;;;;;22.87;14.03;;;3.60;99.90;;;;;;5054302;28;20902;-70
2020/12/02 11:44:26;;;;;;;25.80;15.50;;;3.70;99.90;;;;;;5063905;28;20451;-69
2020/12/02 11:46:59;;;;;;;22.27;14.90;;;3.90;99.90;;;;;;5065237;28;20904;-70
2020/12/02 11:49:34;;;;;;;23.53;14.90;;;3.90;99.90;;;;;;5069563;28;20447;-70
2020/12/02 11:52:12;;;;;;;23.93;13.97;;;3.90;99.90;;;;;;5065230;28;20887;-70
2020/12/02 11:54:40;;;;;;;27.17;15.60;;;4.00;99.90;;;;;;5065367;28;20493;-70
2020/12/02 11:57:10;;;;;;;21.90;13.60;;;4.00;99.90;;;;;;5066444;28;20432;-70
2020/12/02 11:59:37;;;;;;;22.57;14.40;;;3.90;99.90;;;;;;5066090;28;20454;-69
2020/12/02 12:02:40;;;;;;;26.80;17.13;;;3.70;99.90;;;;;;5065348;28;20468;-69
2020/12/02 12:05:19;;;;;;;22.73;13.87;;;3.70;99.90;;;;;;5070866;28;20439;-69
2020/12/02 12:08:00;;;;;;;25.50;14.97;;;3.50;99.90;;;;;;5065517;28;20468;-69
2020/12/02 12:10:30;;;;;;;28.37;15.70;;;3.50;99.90;;;;;;5071722;28;20440;-70
2020/12/02 12:13:07;;;;;;;27.37;15.70;;;3.40;99.90;;;;;;5066907;28;20495;-69
2020/12/02 12:15:38;;;;;;;28.20;16.40;;;3.40;99.90;;;;;;5063757;28;20436;-70
2020/12/02 12:18:12;;;;;;;30.60;16.07;;;3.50;99.90;;;;;;5060810;28;20451;-70
2020/12/02 12:20:44;;;;;;;29.40;16.93;;;3.60;99.90;;;;;;5069027;28;20508;-69
2020/12/02 12:23:28;;;;;;;26.73;14.90;;;3.60;99.90;;;;;;5067317;28;20455;-70
2020/12/02 12:25:56;;;;;;;24.63;16.20;;;3.60;99.90;;;;;;5066421;28;20459;-70
2020/12/02 12:28:27;;;;;;;25.30;16.40;;;3.60;99.90;;;;;;5063805;28;20948;-69
2020/12/02 12:30:58;;;;;;;26.20;15.43;;;3.60;99.90;;;;;;5064775;28;20577;-70
2020/12/02 12:33:31;;;;;;;26.33;15.17;;;3.40;99.90;;;;;;5062221;28;20439;-69
2020/12/02 12:36:05;;;;;;;28.23;17.10;;;3.40;99.90;;;;;;5064265;28;20436;-69
2020/12/02 12:38:38;;;;;;;28.50;14.40;;;3.40;99.90;;;;;;5063951;28;20455;-69
2020/12/02 12:41:15;;;;;;;33.33;17.03;;;3.30;99.90;;;;;;5062210;28;20476;-69
2020/12/02 12:43:48;;;;;;;30.73;18.13;;;3.30;99.90;;;;;;5065418;28;20451;-69
2020/12/02 12:46:21;;;;;;;37.20;18.13;;;3.30;99.90;;;;;;5064038;28;20502;-69
2020/12/02 12:48:47;;;;;;;32.77;18.87;;;3.30;99.90;;;;;;5063759;28;20449;-70
2020/12/02 12:51:17;;;;;;;30.40;16.30;;;3.40;99.90;;;;;;5062652;28;20821;-70
2020/12/02 12:53:44;;;;;;;30.57;16.50;;;3.40;99.90;;;;;;5058740;28;20940;-69
2020/12/02 12:56:13;;;;;;;33.87;18.97;;;3.30;99.90;;;;;;5065382;28;20524;-70
2020/12/02 12:58:40;;;;;;;34.80;17.67;;;3.40;99.90;;;;;;5064252;28;20858;-70
2020/12/02 13:01:10;;;;;;;32.87;17.33;;;3.50;99.90;;;;;;5065568;28;20991;-70